createdAt,value
2023-02-07T00:04:24.110Z,2.14
2023-02-07T00:14:45.691Z,2.09
2023-02-07T00:25:07.075Z,2.07
2023-02-07T00:35:28.419Z,2.01
2023-02-07T00:45:49.836Z,1.87
2023-02-07T00:56:11.761Z,1.86
2023-02-07T01:06:34.319Z,1.77
2023-02-07T01:16:55.710Z,1.71
2023-02-07T01:27:17.059Z,1.67
2023-02-07T01:37:38.415Z,1.62
2023-02-07T01:48:01.649Z,1.55
2023-02-07T01:58:23.617Z,1.53
2023-02-07T02:08:45.253Z,1.50
2023-02-07T02:19:15.789Z,1.45
2023-02-07T02:29:49.536Z,1.36
2023-02-07T02:40:25.289Z,1.28
2023-02-07T02:50:48.115Z,1.29
2023-02-07T03:01:28.471Z,1.25
2023-02-07T03:12:06.083Z,1.18
2023-02-07T03:22:28.809Z,1.13
2023-02-07T03:32:52.425Z,1.17
2023-02-07T03:43:15.849Z,1.16
2023-02-07T03:53:37.266Z,1.10
2023-02-07T04:03:58.727Z,1.03
2023-02-07T04:14:21.383Z,0.95
2023-02-07T04:24:42.761Z,0.87
2023-02-07T04:35:04.217Z,0.76
2023-02-07T04:45:25.659Z,0.71
2023-02-07T04:55:50.841Z,0.72
2023-02-07T05:06:13.073Z,0.66
2023-02-07T05:16:34.495Z,0.58
2023-02-07T05:26:55.844Z,0.55
2023-02-07T05:37:17.205Z,0.46
2023-02-07T05:47:38.589Z,0.37
2023-02-07T05:57:59.993Z,0.32
2023-02-07T06:08:21.358Z,0.22
2023-02-07T06:18:42.730Z,0.18
2023-02-07T06:29:04.161Z,0.19
2023-02-07T06:39:25.539Z,0.10
2023-02-07T06:49:47.553Z,0.05
2023-02-07T07:00:09.256Z,0.10
2023-02-07T07:10:30.750Z,0.03
2023-02-07T07:20:55.814Z,0.04
2023-02-07T07:31:17.283Z,0.04
2023-02-07T07:41:38.661Z,0.09
2023-02-07T07:52:00.105Z,0.14
2023-02-07T08:02:21.472Z,0.22
2023-02-07T08:12:44.222Z,0.28
2023-02-07T08:23:05.736Z,0.40
2023-02-07T08:33:30.002Z,0.50
2023-02-07T08:43:51.676Z,0.52
2023-02-07T08:54:13.122Z,0.58
2023-02-07T09:04:36.427Z,0.68
2023-02-07T09:14:57.897Z,0.82
2023-02-07T09:25:19.312Z,0.90
2023-02-07T09:35:42.159Z,1.03
2023-02-07T09:46:07.011Z,1.16
2023-02-07T09:56:29.615Z,1.29
2023-02-07T10:06:55.074Z,1.42
2023-02-07T10:17:31.059Z,1.54
2023-02-07T10:28:22.498Z,1.70
2023-02-07T10:39:03.304Z,1.91
2023-02-07T10:49:31.782Z,2.10
2023-02-07T10:59:59.274Z,2.31
2023-02-07T11:10:23.613Z,2.53
2023-02-07T11:20:49.383Z,2.70
2023-02-07T11:31:14.553Z,2.79
2023-02-07T11:41:38.823Z,2.94
2023-02-07T11:52:01.893Z,2.95
2023-02-07T12:02:24.899Z,3.14
2023-02-07T12:12:49.851Z,3.26
2023-02-07T12:23:39.167Z,3.38
2023-02-07T12:34:01.446Z,3.60
2023-02-07T12:44:25.917Z,3.78
2023-02-07T12:55:07.982Z,3.70
2023-02-07T13:05:37.633Z,3.85
2023-02-07T13:16:21.390Z,3.84
2023-02-07T13:26:48.228Z,3.94
2023-02-07T13:37:17.063Z,3.96
2023-02-07T13:47:49.487Z,3.92
2023-02-07T13:58:48.717Z,3.90
2023-02-07T14:09:10.053Z,3.95
2023-02-07T14:19:40.559Z,4.12
2023-02-07T14:30:20.514Z,4.14
2023-02-07T14:40:42.000Z,4.17
2023-02-07T14:51:05.244Z,4.26
2023-02-07T15:01:26.756Z,4.32
2023-02-07T15:11:54.041Z,4.34
2023-02-07T15:22:30.138Z,4.23
2023-02-07T15:32:51.581Z,4.12
2023-02-07T15:43:24.441Z,4.15
2023-02-07T15:53:49.045Z,4.10
2023-02-07T16:04:10.472Z,3.98
2023-02-07T16:14:32.967Z,3.78
2023-02-07T16:24:54.410Z,3.64
2023-02-07T16:35:23.614Z,3.52
2023-02-07T16:45:45.038Z,3.40
2023-02-07T16:56:06.821Z,3.27
2023-02-07T17:06:29.681Z,3.18
2023-02-07T17:16:51.847Z,3.03
2023-02-07T17:27:13.250Z,2.87
2023-02-07T17:37:36.488Z,2.83
2023-02-07T17:47:57.946Z,2.68
2023-02-07T17:58:19.361Z,2.59
2023-02-07T18:08:41.313Z,2.55
2023-02-07T18:19:03.659Z,2.52
2023-02-07T18:29:25.033Z,2.42
2023-02-07T18:39:47.035Z,2.26
2023-02-07T18:50:08.878Z,2.18
2023-02-07T19:00:30.243Z,2.13
2023-02-07T19:10:59.537Z,2.07
2023-02-07T19:21:23.795Z,1.96
2023-02-07T19:31:45.217Z,1.98
2023-02-07T19:42:06.650Z,1.87
2023-02-07T19:52:29.070Z,1.80
2023-02-07T20:02:50.430Z,1.75
2023-02-07T20:13:12.276Z,1.75
2023-02-07T20:23:34.314Z,1.68
2023-02-07T20:33:57.464Z,1.57
2023-02-07T20:44:20.435Z,1.50
2023-02-07T20:54:41.778Z,1.44
2023-02-07T21:05:03.212Z,1.41
2023-02-07T21:15:24.557Z,1.39
2023-02-07T21:25:46.233Z,1.35
2023-02-07T21:36:07.671Z,1.31
2023-02-07T21:46:30.407Z,1.26
2023-02-07T21:56:51.883Z,1.23
2023-02-07T22:07:13.331Z,1.17
2023-02-07T22:17:34.710Z,1.13
2023-02-07T22:27:56.253Z,1.07
2023-02-07T22:38:17.610Z,1.04
2023-02-07T22:48:39.108Z,1.00
2023-02-07T22:59:00.507Z,0.92
2023-02-07T23:09:22.175Z,0.90
2023-02-07T23:19:43.523Z,0.87
2023-02-07T23:30:05.114Z,0.86
2023-02-07T23:40:26.834Z,0.84
2023-02-07T23:50:55.464Z,0.79
